ETD242 OPLA-OMAA
Flight info
| Callsign | ETD242 |
|---|---|
| Flight time | N/A |
| Altitude | 34000 |
| Route | VEREN J166 NITIV G214 PG G665 ASVIB N312 MOBET M324 PATAT L519 IVOXI Q311 EMERU |
| Aircraft | A320/M-S/C |
Departure
| Time | 2026-04-19 19:29 |
|---|---|
| Airport | Allama Iqbal International Airport (OPLA) |
Arrival
| Time | N/A |
|---|---|
| Airport | Zayed International Airport (OMAA) |
| Time | Latitude | Longitude | Altitude | Speed | Heading |
|---|---|---|---|---|---|
| 2026-04-19 19:22 | 31.52038 | 74.40973 | 727 ft | 0 kts | 92° |
| 2026-04-19 19:23 | 31.52037 | 74.40844 | 727 ft | 0 kts | 89° |
| 2026-04-19 19:23 | 31.51994 | 74.40841 | 727 ft | 9 kts | 183° |
| 2026-04-19 19:24 | 31.51934 | 74.40838 | 727 ft | 8 kts | 183° |
| 2026-04-19 19:24 | 31.51881 | 74.40834 | 727 ft | 7 kts | 183° |
| 2026-04-19 19:24 | 31.51802 | 74.40840 | 727 ft | 20 kts | 177° |
| 2026-04-19 19:26 | 31.51708 | 74.40779 | 727 ft | 21 kts | 274° |
| 2026-04-19 19:26 | 31.51667 | 74.40648 | 727 ft | 20 kts | 175° |
| 2026-04-19 19:26 | 31.51492 | 74.40648 | 727 ft | 31 kts | 181° |
| 2026-04-19 19:26 | 31.51276 | 74.40646 | 727 ft | 31 kts | 181° |
| 2026-04-19 19:27 | 31.51068 | 74.40641 | 727 ft | 29 kts | 181° |
| 2026-04-19 19:27 | 31.50885 | 74.40636 | 727 ft | 21 kts | 180° |
| 2026-04-19 19:27 | 31.50756 | 74.40619 | 727 ft | 18 kts | 215° |
| 2026-04-19 19:27 | 31.50672 | 74.40518 | 727 ft | 15 kts | 240° |
| 2026-04-19 19:28 | 31.50691 | 74.40426 | 727 ft | 12 kts | 350° |
| 2026-04-19 19:28 | 31.50754 | 74.40427 | 727 ft | 8 kts | 1° |
| 2026-04-19 19:28 | 31.50864 | 74.40431 | 727 ft | 42 kts | 1° |
| 2026-04-19 19:28 | 31.51382 | 74.40435 | 727 ft | 105 kts | 2° |
| 2026-04-19 19:29 | 31.52295 | 74.40456 | 727 ft | 155 kts | 0° |
| 2026-04-19 19:29 | 31.53493 | 74.40475 | 912 ft | 179 kts | 0° |
| 2026-04-19 19:29 | 31.54752 | 74.40496 | 1585 ft | 191 kts | 0° |
| 2026-04-19 19:29 | 31.56253 | 74.40514 | 1749 ft | 245 kts | 0° |
| 2026-04-19 19:30 | 31.58034 | 74.40537 | 2728 ft | 251 kts | 359° |
| 2026-04-19 19:30 | 31.59723 | 74.40176 | 3829 ft | 253 kts | 339° |
| 2026-04-19 19:30 | 31.61289 | 74.39091 | 4375 ft | 269 kts | 317° |
| 2026-04-19 19:30 | 31.62308 | 74.37281 | 5326 ft | 269 kts | 292° |
| 2026-04-19 19:31 | 31.62608 | 74.35099 | 6096 ft | 275 kts | 267° |
| 2026-04-19 19:31 | 31.62098 | 74.32944 | 6913 ft | 278 kts | 243° |
| 2026-04-19 19:31 | 31.60883 | 74.31175 | 7757 ft | 279 kts | 225° |
| 2026-04-19 19:31 | 31.59540 | 74.29514 | 8530 ft | 283 kts | 229° |
| 2026-04-19 19:32 | 31.58290 | 74.27719 | 9317 ft | 285 kts | 232° |
| 2026-04-19 19:32 | 31.57107 | 74.25843 | 10110 ft | 288 kts | 234° |
| 2026-04-19 19:32 | 31.55925 | 74.23845 | 10350 ft | 311 kts | 236° |
| 2026-04-19 19:32 | 31.54685 | 74.21639 | 10432 ft | 335 kts | 237° |
| 2026-04-19 19:33 | 31.53384 | 74.19262 | 10512 ft | 357 kts | 238° |
| 2026-04-19 19:33 | 31.52006 | 74.16828 | 10999 ft | 363 kts | 233° |
| 2026-04-19 19:33 | 31.50289 | 74.14661 | 11791 ft | 365 kts | 222° |
| 2026-04-19 19:33 | 31.48194 | 74.12951 | 12441 ft | 370 kts | 210° |
| 2026-04-19 19:34 | 31.45814 | 74.11763 | 13116 ft | 373 kts | 202° |
| 2026-04-19 19:34 | 31.43372 | 74.10680 | 13712 ft | 377 kts | 202° |
| 2026-04-19 19:34 | 31.40901 | 74.09606 | 14297 ft | 380 kts | 202° |
| 2026-04-19 19:34 | 31.38403 | 74.08534 | 14876 ft | 384 kts | 201° |
| 2026-04-19 19:35 | 31.35884 | 74.07463 | 15412 ft | 387 kts | 201° |
| 2026-04-19 19:35 | 31.33334 | 74.06387 | 15938 ft | 390 kts | 201° |
| 2026-04-19 19:35 | 31.30771 | 74.05311 | 16447 ft | 394 kts | 201° |
| 2026-04-19 19:35 | 31.28200 | 74.04174 | 16941 ft | 396 kts | 206° |
| 2026-04-19 19:36 | 31.25787 | 74.02620 | 17436 ft | 396 kts | 216° |
| 2026-04-19 19:36 | 31.23649 | 74.00595 | 17908 ft | 396 kts | 226° |
| 2026-04-19 19:36 | 31.21774 | 73.98215 | 18365 ft | 399 kts | 230° |
| 2026-04-19 19:36 | 31.19958 | 73.95804 | 18850 ft | 401 kts | 231° |
| 2026-04-19 19:37 | 31.18120 | 73.93342 | 19347 ft | 403 kts | 231° |
| 2026-04-19 19:37 | 31.16278 | 73.90863 | 19842 ft | 406 kts | 231° |
| 2026-04-19 19:37 | 31.14422 | 73.88354 | 20310 ft | 408 kts | 231° |
| 2026-04-19 19:37 | 31.12565 | 73.85838 | 20757 ft | 411 kts | 231° |
| 2026-04-19 19:38 | 31.10689 | 73.83292 | 21181 ft | 413 kts | 231° |
| 2026-04-19 19:38 | 31.08812 | 73.80741 | 21590 ft | 415 kts | 231° |
| 2026-04-19 19:38 | 31.06924 | 73.78176 | 21978 ft | 418 kts | 231° |
| 2026-04-19 19:38 | 31.05026 | 73.75594 | 22351 ft | 420 kts | 231° |
| 2026-04-19 19:39 | 31.03122 | 73.73006 | 22715 ft | 422 kts | 231° |
| 2026-04-19 19:39 | 31.01205 | 73.70400 | 23064 ft | 424 kts | 231° |
| 2026-04-19 19:39 | 30.99280 | 73.67785 | 23438 ft | 426 kts | 231° |
| 2026-04-19 19:39 | 30.97352 | 73.65164 | 23760 ft | 428 kts | 231° |
| 2026-04-19 19:40 | 30.95406 | 73.62520 | 24095 ft | 430 kts | 231° |
| 2026-04-19 19:40 | 30.93454 | 73.59870 | 24404 ft | 432 kts | 231° |
| 2026-04-19 19:40 | 30.91519 | 73.57244 | 24714 ft | 434 kts | 231° |
| 2026-04-19 19:40 | 30.89549 | 73.54572 | 25027 ft | 436 kts | 231° |
| 2026-04-19 19:41 | 30.87567 | 73.51885 | 25305 ft | 438 kts | 231° |
| 2026-04-19 19:41 | 30.85576 | 73.49186 | 25588 ft | 440 kts | 231° |
| 2026-04-19 19:41 | 30.83572 | 73.46472 | 25867 ft | 442 kts | 231° |
| 2026-04-19 19:41 | 30.81561 | 73.43748 | 26137 ft | 444 kts | 231° |
| 2026-04-19 19:42 | 30.79542 | 73.41016 | 26431 ft | 445 kts | 231° |
| 2026-04-19 19:42 | 30.77513 | 73.38271 | 26678 ft | 448 kts | 231° |
| 2026-04-19 19:42 | 30.75481 | 73.35524 | 26935 ft | 449 kts | 231° |
| 2026-04-19 19:42 | 30.73436 | 73.32761 | 27204 ft | 451 kts | 231° |
| 2026-04-19 19:43 | 30.71415 | 73.30031 | 27425 ft | 452 kts | 231° |
| 2026-04-19 19:43 | 30.69358 | 73.27254 | 27647 ft | 454 kts | 231° |
| 2026-04-19 19:43 | 30.67299 | 73.24468 | 27879 ft | 455 kts | 232° |
| 2026-04-19 19:43 | 30.65240 | 73.21667 | 28071 ft | 457 kts | 232° |
| 2026-04-19 19:44 | 30.63170 | 73.18849 | 28268 ft | 458 kts | 232° |
| 2026-04-19 19:44 | 30.61102 | 73.16031 | 28467 ft | 459 kts | 232° |
| 2026-04-19 19:44 | 30.59025 | 73.13200 | 28649 ft | 460 kts | 232° |
| 2026-04-19 19:44 | 30.56949 | 73.10369 | 28860 ft | 460 kts | 232° |
| 2026-04-19 19:45 | 30.54877 | 73.07543 | 29117 ft | 460 kts | 232° |
| 2026-04-19 19:45 | 30.52808 | 73.04722 | 29347 ft | 459 kts | 232° |
| 2026-04-19 19:45 | 30.50736 | 73.01897 | 29576 ft | 459 kts | 232° |
| 2026-04-19 19:45 | 30.48672 | 72.99083 | 29820 ft | 458 kts | 232° |
| 2026-04-19 19:46 | 30.46607 | 72.96269 | 30048 ft | 457 kts | 232° |
| 2026-04-19 19:46 | 30.44547 | 72.93462 | 30274 ft | 457 kts | 232° |
| 2026-04-19 19:46 | 30.42488 | 72.90658 | 30524 ft | 456 kts | 232° |
| 2026-04-19 19:46 | 30.41133 | 72.88812 | 30693 ft | 455 kts | 232° |
| 2026-04-19 19:47 | 30.38419 | 72.85118 | 30986 ft | 454 kts | 232° |
| 2026-04-19 19:47 | 30.36378 | 72.82341 | 31218 ft | 453 kts | 232° |
| 2026-04-19 19:47 | 30.34337 | 72.79565 | 31429 ft | 452 kts | 232° |
| 2026-04-19 19:47 | 30.32297 | 72.76792 | 31647 ft | 451 kts | 232° |
| 2026-04-19 19:48 | 30.30950 | 72.74963 | 31794 ft | 451 kts | 232° |
| 2026-04-19 19:48 | 30.28917 | 72.72201 | 32009 ft | 450 kts | 232° |
| 2026-04-19 19:48 | 30.26886 | 72.69445 | 32201 ft | 449 kts | 232° |
| 2026-04-19 19:48 | 30.24858 | 72.66694 | 32404 ft | 449 kts | 232° |
| 2026-04-19 19:49 | 30.22836 | 72.63954 | 32631 ft | 447 kts | 232° |
| 2026-04-19 19:49 | 30.20817 | 72.61220 | 32836 ft | 446 kts | 232° |
| 2026-04-19 19:49 | 30.18775 | 72.58508 | 32990 ft | 447 kts | 231° |
| 2026-04-19 19:49 | 30.16720 | 72.55808 | 33182 ft | 446 kts | 231° |
| 2026-04-19 19:50 | 30.14675 | 72.53124 | 33406 ft | 445 kts | 232° |
| 2026-04-19 19:50 | 30.12627 | 72.50433 | 33572 ft | 445 kts | 232° |
| 2026-04-19 19:50 | 30.10611 | 72.47782 | 33721 ft | 445 kts | 232° |
| 2026-04-19 19:51 | 30.06516 | 72.42397 | 33817 ft | 445 kts | 232° |
| 2026-04-19 19:51 | 30.02431 | 72.37025 | 33823 ft | 445 kts | 232° |
| 2026-04-19 19:52 | 29.98354 | 72.31664 | 33823 ft | 445 kts | 232° |
| 2026-04-19 19:52 | 29.94267 | 72.26294 | 33822 ft | 445 kts | 232° |
| 2026-04-19 19:53 | 29.90184 | 72.20934 | 33821 ft | 445 kts | 232° |
| 2026-04-19 19:53 | 29.86226 | 72.15751 | 33821 ft | 445 kts | 231° |
| 2026-04-19 19:54 | 29.82124 | 72.10408 | 33820 ft | 445 kts | 231° |
| 2026-04-19 19:54 | 29.78025 | 72.05068 | 33819 ft | 445 kts | 231° |
| 2026-04-19 19:55 | 29.73928 | 71.99730 | 33819 ft | 445 kts | 231° |
| 2026-04-19 19:55 | 29.69832 | 71.94395 | 33819 ft | 445 kts | 231° |
| 2026-04-19 19:56 | 29.65750 | 71.89080 | 33819 ft | 446 kts | 231° |
| 2026-04-19 19:56 | 29.61646 | 71.83742 | 33819 ft | 445 kts | 231° |
| 2026-04-19 19:57 | 29.57536 | 71.78402 | 33819 ft | 445 kts | 231° |
| 2026-04-19 19:57 | 29.53429 | 71.73070 | 33819 ft | 445 kts | 231° |
| 2026-04-19 19:58 | 29.49315 | 71.67734 | 33819 ft | 446 kts | 231° |
| 2026-04-19 19:58 | 29.45226 | 71.62438 | 33819 ft | 445 kts | 231° |
| 2026-04-19 19:59 | 29.41108 | 71.57109 | 33819 ft | 446 kts | 231° |
| 2026-04-19 19:59 | 29.36990 | 71.51789 | 33819 ft | 446 kts | 231° |
| 2026-04-19 20:00 | 29.32869 | 71.46471 | 33820 ft | 446 kts | 231° |
| 2026-04-19 20:00 | 29.28725 | 71.41167 | 33820 ft | 447 kts | 230° |
| 2026-04-19 20:01 | 29.24519 | 71.35930 | 33819 ft | 447 kts | 230° |
| 2026-04-19 20:01 | 29.20338 | 71.30723 | 33820 ft | 447 kts | 230° |
| 2026-04-19 20:02 | 29.16134 | 71.25483 | 33820 ft | 447 kts | 230° |
| 2026-04-19 20:02 | 29.11927 | 71.20237 | 33820 ft | 447 kts | 230° |
| 2026-04-19 20:03 | 29.07722 | 71.14995 | 33820 ft | 447 kts | 230° |
| 2026-04-19 20:03 | 29.03513 | 71.09750 | 33821 ft | 447 kts | 230° |
| 2026-04-19 20:04 | 28.99304 | 71.04510 | 33822 ft | 448 kts | 230° |
| 2026-04-19 20:04 | 28.95093 | 70.99269 | 33822 ft | 448 kts | 230° |
| 2026-04-19 20:05 | 28.90905 | 70.94063 | 33823 ft | 448 kts | 230° |
| 2026-04-19 20:05 | 28.86691 | 70.88829 | 33823 ft | 448 kts | 230° |
| 2026-04-19 20:06 | 28.82449 | 70.83567 | 33824 ft | 448 kts | 230° |
| 2026-04-19 20:06 | 28.78251 | 70.78365 | 33825 ft | 448 kts | 230° |
| 2026-04-19 20:07 | 28.74025 | 70.73134 | 33825 ft | 449 kts | 230° |
| 2026-04-19 20:07 | 28.69788 | 70.67895 | 33826 ft | 449 kts | 230° |
| 2026-04-19 20:08 | 28.65552 | 70.62664 | 33826 ft | 449 kts | 230° |
| 2026-04-19 20:08 | 28.61307 | 70.57428 | 33827 ft | 450 kts | 230° |
| 2026-04-19 20:09 | 28.57086 | 70.52228 | 33828 ft | 450 kts | 230° |
| 2026-04-19 20:09 | 28.53049 | 70.47261 | 33826 ft | 450 kts | 230° |
| 2026-04-19 20:10 | 28.48783 | 70.42017 | 33826 ft | 451 kts | 230° |
| 2026-04-19 20:10 | 28.44522 | 70.36787 | 33826 ft | 451 kts | 229° |
| 2026-04-19 20:11 | 28.40250 | 70.31550 | 33827 ft | 452 kts | 229° |
| 2026-04-19 20:11 | 28.36051 | 70.26236 | 33825 ft | 450 kts | 236° |
| 2026-04-19 20:12 | 28.33022 | 70.20069 | 33828 ft | 447 kts | 246° |
| 2026-04-19 20:12 | 28.30299 | 70.13765 | 33828 ft | 447 kts | 246° |
| 2026-04-19 20:13 | 28.27576 | 70.07419 | 33829 ft | 447 kts | 246° |
| 2026-04-19 20:13 | 28.24861 | 70.01061 | 33829 ft | 447 kts | 246° |
| 2026-04-19 20:14 | 28.22155 | 69.94708 | 33828 ft | 447 kts | 246° |
| 2026-04-19 20:14 | 28.19449 | 69.88341 | 33831 ft | 448 kts | 246° |
| 2026-04-19 20:15 | 28.17201 | 69.83047 | 33831 ft | 448 kts | 246° |
| 2026-04-19 20:15 | 28.14063 | 69.75655 | 33832 ft | 447 kts | 246° |
| 2026-04-19 20:16 | 28.11366 | 69.69300 | 33833 ft | 447 kts | 246° |
| 2026-04-19 20:16 | 28.08668 | 69.62949 | 33834 ft | 447 kts | 246° |
| 2026-04-19 20:17 | 28.05967 | 69.56594 | 33834 ft | 447 kts | 246° |
| 2026-04-19 20:17 | 28.03267 | 69.50248 | 33835 ft | 447 kts | 246° |
| 2026-04-19 20:18 | 28.00567 | 69.43910 | 33836 ft | 447 kts | 246° |
| 2026-04-19 20:18 | 27.97861 | 69.37565 | 33837 ft | 447 kts | 246° |
| 2026-04-19 20:19 | 27.95156 | 69.31229 | 33838 ft | 447 kts | 246° |
| 2026-04-19 20:19 | 27.92462 | 69.24928 | 33838 ft | 447 kts | 246° |
| 2026-04-19 20:20 | 27.89690 | 69.18632 | 33839 ft | 447 kts | 245° |
| 2026-04-19 20:20 | 27.86877 | 69.12347 | 33840 ft | 447 kts | 245° |
| 2026-04-19 20:21 | 27.84071 | 69.06065 | 33841 ft | 447 kts | 245° |
| 2026-04-19 20:21 | 27.81271 | 68.99786 | 33855 ft | 447 kts | 245° |
| 2026-04-19 20:22 | 27.78489 | 68.93545 | 33859 ft | 447 kts | 245° |
| 2026-04-19 20:22 | 27.75690 | 68.87262 | 33860 ft | 447 kts | 245° |
| 2026-04-19 20:23 | 27.72893 | 68.80987 | 33859 ft | 447 kts | 245° |
| 2026-04-19 20:23 | 27.70949 | 68.74386 | 33864 ft | 443 kts | 261° |
| 2026-04-19 20:24 | 27.69804 | 68.67549 | 33863 ft | 442 kts | 261° |
| 2026-04-19 20:24 | 27.68680 | 68.60729 | 33864 ft | 443 kts | 261° |
| 2026-04-19 20:25 | 27.67563 | 68.53891 | 33865 ft | 443 kts | 261° |
| 2026-04-19 20:25 | 27.66461 | 68.47106 | 33873 ft | 443 kts | 261° |
| 2026-04-19 20:26 | 27.65354 | 68.40270 | 33874 ft | 442 kts | 261° |
| 2026-04-19 20:26 | 27.64249 | 68.33437 | 33875 ft | 443 kts | 261° |
| 2026-04-19 20:27 | 27.63145 | 68.26608 | 33876 ft | 443 kts | 261° |
| 2026-04-19 20:27 | 27.62039 | 68.19772 | 33876 ft | 443 kts | 261° |
| 2026-04-19 20:28 | 27.60931 | 68.12932 | 33877 ft | 443 kts | 261° |
| 2026-04-19 20:28 | 27.59830 | 68.06148 | 33878 ft | 443 kts | 261° |
| 2026-04-19 20:29 | 27.58718 | 67.99317 | 33879 ft | 443 kts | 261° |
| 2026-04-19 20:29 | 27.57602 | 67.92483 | 33879 ft | 443 kts | 262° |
| 2026-04-19 20:30 | 27.55925 | 67.82229 | 33880 ft | 443 kts | 261° |
| 2026-04-19 20:30 | 27.54802 | 67.75388 | 33881 ft | 443 kts | 261° |
| 2026-04-19 20:31 | 27.53684 | 67.68600 | 33882 ft | 444 kts | 261° |
| 2026-04-19 20:31 | 27.52555 | 67.61766 | 33882 ft | 444 kts | 261° |
| 2026-04-19 20:32 | 27.51423 | 67.54935 | 33883 ft | 444 kts | 262° |
| 2026-04-19 20:32 | 27.50286 | 67.48087 | 33884 ft | 444 kts | 262° |
| 2026-04-19 20:33 | 27.49145 | 67.41244 | 33884 ft | 444 kts | 262° |
| 2026-04-19 20:33 | 27.48002 | 67.34405 | 33885 ft | 445 kts | 262° |
| 2026-04-19 20:34 | 27.46853 | 67.27552 | 33886 ft | 445 kts | 262° |
| 2026-04-19 20:34 | 27.45723 | 67.20749 | 33886 ft | 445 kts | 262° |
| 2026-04-19 20:35 | 27.44629 | 67.13891 | 33887 ft | 445 kts | 263° |
| 2026-04-19 20:35 | 27.43548 | 67.07030 | 33893 ft | 445 kts | 263° |
| 2026-04-19 20:36 | 27.42474 | 67.00164 | 33895 ft | 445 kts | 263° |
| 2026-04-19 20:36 | 27.41939 | 66.96729 | 33895 ft | 446 kts | 263° |
| 2026-04-19 20:37 | 27.40345 | 66.86465 | 33897 ft | 445 kts | 263° |
| 2026-04-19 20:37 | 27.39280 | 66.79600 | 33897 ft | 446 kts | 263° |
| 2026-04-19 20:38 | 27.38387 | 66.73842 | 33898 ft | 445 kts | 263° |
| 2026-04-19 20:38 | 27.37328 | 66.67012 | 33899 ft | 446 kts | 263° |
| 2026-04-19 20:39 | 27.36260 | 66.60143 | 33900 ft | 446 kts | 263° |
| 2026-04-19 20:39 | 27.35189 | 66.53262 | 33901 ft | 446 kts | 263° |
| 2026-04-19 20:40 | 27.34116 | 66.46383 | 33901 ft | 446 kts | 264° |
| 2026-04-19 20:40 | 27.33040 | 66.39500 | 33902 ft | 447 kts | 264° |
| 2026-04-19 20:41 | 27.31960 | 66.32615 | 33903 ft | 446 kts | 264° |
| 2026-04-19 20:41 | 27.30886 | 66.25787 | 33889 ft | 447 kts | 264° |
| 2026-04-19 20:42 | 27.29801 | 66.18904 | 33884 ft | 447 kts | 264° |
| 2026-04-19 20:42 | 27.28712 | 66.12020 | 33885 ft | 447 kts | 264° |
| 2026-04-19 20:43 | 27.27619 | 66.05135 | 33856 ft | 447 kts | 263° |
| 2026-04-19 20:43 | 27.26418 | 65.98273 | 33854 ft | 447 kts | 263° |
| 2026-04-19 20:44 | 27.25276 | 65.91403 | 33853 ft | 447 kts | 264° |
| 2026-04-19 20:44 | 27.24152 | 65.84518 | 33855 ft | 447 kts | 264° |
| 2026-04-19 20:45 | 27.23040 | 65.77692 | 33855 ft | 447 kts | 264° |
| 2026-04-19 20:45 | 27.21921 | 65.70823 | 33856 ft | 447 kts | 264° |
| 2026-04-19 20:46 | 27.20802 | 65.63960 | 33857 ft | 447 kts | 264° |
| 2026-04-19 20:46 | 27.19678 | 65.57092 | 33857 ft | 447 kts | 264° |
| 2026-04-19 20:47 | 27.18551 | 65.50226 | 33858 ft | 447 kts | 264° |
| 2026-04-19 20:47 | 27.17422 | 65.43371 | 33859 ft | 446 kts | 263° |
| 2026-04-19 20:48 | 27.16288 | 65.36504 | 33860 ft | 447 kts | 263° |
| 2026-04-19 20:48 | 27.15152 | 65.29652 | 33861 ft | 447 kts | 263° |
| 2026-04-19 20:49 | 27.14019 | 65.22841 | 33861 ft | 447 kts | 263° |
| 2026-04-19 20:49 | 27.12873 | 65.15975 | 33862 ft | 447 kts | 263° |
| 2026-04-19 20:50 | 27.11725 | 65.09120 | 33863 ft | 446 kts | 263° |
| 2026-04-19 20:50 | 27.10576 | 65.02283 | 33864 ft | 446 kts | 263° |
| 2026-04-19 20:51 | 27.09424 | 64.95444 | 33865 ft | 446 kts | 263° |
| 2026-04-19 20:51 | 27.08268 | 64.88604 | 33866 ft | 446 kts | 263° |
| 2026-04-19 20:52 | 27.07117 | 64.81815 | 33867 ft | 446 kts | 263° |
| 2026-04-19 20:52 | 27.05956 | 64.74987 | 33868 ft | 446 kts | 263° |
| 2026-04-19 20:53 | 27.04787 | 64.68137 | 33869 ft | 446 kts | 263° |
| 2026-04-19 20:53 | 27.03618 | 64.61305 | 33870 ft | 446 kts | 263° |
| 2026-04-19 20:54 | 27.02446 | 64.54482 | 33872 ft | 445 kts | 263° |
| 2026-04-19 20:54 | 27.01278 | 64.47698 | 33873 ft | 445 kts | 263° |
| 2026-04-19 20:55 | 27.00100 | 64.40876 | 33874 ft | 445 kts | 263° |
| 2026-04-19 20:55 | 26.98918 | 64.34052 | 33875 ft | 445 kts | 263° |
| 2026-04-19 20:56 | 26.97734 | 64.27242 | 33876 ft | 445 kts | 263° |
| 2026-04-19 20:56 | 26.96544 | 64.20415 | 33878 ft | 445 kts | 263° |
| 2026-04-19 20:57 | 26.95385 | 64.13595 | 33878 ft | 444 kts | 266° |
| 2026-04-19 20:57 | 26.95207 | 64.06747 | 33881 ft | 439 kts | 274° |
| 2026-04-19 20:58 | 26.95234 | 63.99945 | 33882 ft | 439 kts | 274° |
| 2026-04-19 20:58 | 26.95272 | 63.93110 | 33883 ft | 437 kts | 274° |
| 2026-04-19 20:59 | 26.95319 | 63.86286 | 33885 ft | 438 kts | 274° |
| 2026-04-19 20:59 | 26.95372 | 63.79466 | 33886 ft | 438 kts | 274° |
| 2026-04-19 21:00 | 26.95427 | 63.72643 | 33887 ft | 438 kts | 274° |
| 2026-04-19 21:00 | 26.95483 | 63.65817 | 33889 ft | 437 kts | 274° |
| 2026-04-19 21:01 | 26.95538 | 63.58997 | 33890 ft | 437 kts | 274° |
| 2026-04-19 21:01 | 26.95592 | 63.52218 | 33892 ft | 437 kts | 274° |
| 2026-04-19 21:02 | 26.95645 | 63.45396 | 33893 ft | 437 kts | 274° |
| 2026-04-19 21:02 | 26.95695 | 63.38578 | 33895 ft | 437 kts | 274° |
| 2026-04-19 21:03 | 26.95742 | 63.31756 | 33896 ft | 437 kts | 274° |
| 2026-04-19 21:03 | 26.95279 | 63.24912 | 33898 ft | 441 kts | 268° |
| 2026-04-19 21:04 | 26.94694 | 63.18122 | 33899 ft | 441 kts | 269° |
| 2026-04-19 21:04 | 26.94120 | 63.11286 | 33900 ft | 440 kts | 269° |